Kaohsiung International Airport
RCKH : now visible

Airfield :











YOU CAN JOIN US ON...

 
LOGIN :

Register | Disclaimer

   EN    FR    IT 

 









Legend :    VFR   Marginal VFR   IFR   Intensive IFR   Very Intensive IFR
Visi :
Ceiling :
>= 8 km
>= 3000ft
5 to 8 km
1000 to 3000 ft
1500m to 5 km
500 to 1000 ft
800 to 1500m
200 to 500 ft
< 800m
< 200 ft
Symbols :   Thunderstorms  Fog  Heavy snow  Heavy precipitations  Wind > 20 kt






- Airport Elevation : 31 ft
- IATA code : KHH


RCKH - Kaohsiung International

CURRENT METAR :
  • 070015Z 35008KT 320V020 4500 BR FEW010 SCT025 BKN100 21/19 Q1013 NOSIG RMK A2994

EXPIRED METARs :
  • 070000Z 35010KT 320V020 3500 BR SCT007 BKN010 BKN090 20/19 Q1013 NOSIG RMK A2993
  • 062351Z 34009KT 3500 BR SCT007 BKN010 BKN090 20/19 Q1013 NOSIG RMK A2993
  • 062330Z 33010KT 2500 -RA SCT005 BKN010 BKN080 20/19 Q1013 NOSIG RMK A2993
  • 062300Z 33007KT 7000 -RA SCT005 BKN100 BKN180 20/19 Q1012 NOSIG RMK A2991
  • 062230Z 32007KT 8000 -RA FEW010 SCT040 BKN100 20/20 Q1012 NOSIG RMK A2990
  • 062200Z VRB01KT 8000 -RA FEW010 SCT040 BKN100 19/19 Q1011 NOSIG RMK A2988 RA AMT 0.2MM

TAF COR TAF RCKH
Valid from the 07 at 00:00 until the 08 at 06:00 UTC


062335Z 0700/0806 35005KT 8000 FEW012 BKN032
TEMPO 0700/0702 4000 RA BR SCT007 BKN013 BKN030
TEMPO 0703/0709 32008KT FEW010 BKN022 BKN050
TEMPO 0719/0801 5000 HZ
BECMG 0801/0803 25007KT



MET'MAP, your aeronautical weather chart ! - Copyright ORBIFLY December 2007 - Disclaimer

ORBIFLY MET'MAP TEAM :

Programming & Development : Alexandra Zaïnal
Concept & original design : Baudouin d'Aumeries
Assistance for programming : Marc-Olivier Méhu
Technical & hardware support : Manuel Goepfert

Contact : metmap@orbifly.com




SOURCES & CREDITS :

   NOAA       Earth
Advisory